Time;durP1;ratioP1;P1;durP2;ratioP2;P2;SDS_P1;SDS_P2;PMS_P1;PMS_P2;Temp;Humidity;BMP_temperature;BMP_pressure;BME280_temperature;BME280_humidity;BME280_pressure;Samples;Min_cycle;Max_cycle;Signal;HPM_P1;HPM_P2
2022/11/15 00:01:09;;;;;;;24.58;17.67;;;6.50;99.90;;;;;;4978792;28;20019;-75
2022/11/15 00:03:35;;;;;;;22.33;16.85;;;6.50;99.90;;;;;;4978480;28;20038;-70
2022/11/15 00:06:03;;;;;;;21.60;17.02;;;6.40;99.90;;;;;;4981045;28;20023;-74
2022/11/15 00:08:30;;;;;;;26.38;17.38;;;6.30;99.90;;;;;;4978896;28;20054;-76
2022/11/15 00:11:00;;;;;;;24.50;17.90;;;6.30;99.90;;;;;;4977814;28;20367;-71
2022/11/15 00:13:26;;;;;;;26.90;18.88;;;6.20;99.90;;;;;;4979056;28;20041;-73
2022/11/15 00:15:52;;;;;;;24.98;17.45;;;6.20;99.90;;;;;;4978289;28;20027;-71
2022/11/15 00:18:18;;;;;;;27.45;18.88;;;6.20;99.90;;;;;;4979120;28;20027;-73
2022/11/15 00:20:43;;;;;;;29.90;18.73;;;6.20;99.90;;;;;;4979541;28;20034;-74
2022/11/15 00:23:09;;;;;;;27.35;18.52;;;6.30;99.90;;;;;;4980263;28;20162;-70
2022/11/15 00:25:35;;;;;;;23.08;17.92;;;6.30;99.90;;;;;;4977617;28;20026;-70
2022/11/15 00:28:02;;;;;;;25.60;18.83;;;6.30;99.90;;;;;;4975298;28;20033;-70
2022/11/15 00:30:27;;;;;;;26.38;19.67;;;6.20;99.90;;;;;;4980808;28;20037;-70
2022/11/15 00:32:53;;;;;;;31.38;18.73;;;6.20;99.90;;;;;;4978952;28;20018;-70
2022/11/15 00:35:20;;;;;;;30.75;20.27;;;6.20;99.90;;;;;;4976693;28;20117;-72
2022/11/15 00:37:47;;;;;;;29.92;19.60;;;6.30;99.90;;;;;;4975853;28;20033;-70
2022/11/15 00:40:13;;;;;;;31.20;20.40;;;6.30;99.90;;;;;;4976324;28;20037;-70
2022/11/15 00:42:39;;;;;;;29.77;19.52;;;6.40;99.90;;;;;;4980988;28;20039;-73
2022/11/15 00:45:05;;;;;;;30.48;19.35;;;6.40;99.90;;;;;;4976280;28;20081;-73
2022/11/15 00:47:31;;;;;;;28.63;19.58;;;6.50;99.90;;;;;;4975919;28;20378;-71
2022/11/15 00:49:56;;;;;;;27.58;18.52;;;6.60;99.90;;;;;;4977852;28;20575;-75
2022/11/15 00:52:22;;;;;;;25.80;18.02;;;6.60;99.90;;;;;;4975614;28;20118;-73
2022/11/15 00:54:48;;;;;;;24.27;18.52;;;6.70;99.90;;;;;;4975124;28;20066;-70
2022/11/15 00:57:13;;;;;;;25.80;18.80;;;6.70;99.90;;;;;;4975175;28;20030;-71
2022/11/15 00:59:39;;;;;;;29.13;17.55;;;6.80;99.90;;;;;;4978165;28;20027;-73
2022/11/15 01:02:05;;;;;;;23.63;17.70;;;6.80;99.90;;;;;;4981278;28;20138;-70
2022/11/15 01:04:30;;;;;;;33.03;20.48;;;6.80;99.90;;;;;;4976264;28;20441;-74
2022/11/15 01:06:56;;;;;;;25.75;18.38;;;6.80;99.90;;;;;;4980299;28;20557;-70
2022/11/15 01:09:22;;;;;;;23.33;17.77;;;6.80;99.90;;;;;;4980020;28;20027;-74
2022/11/15 01:11:47;;;;;;;26.23;18.50;;;6.80;99.90;;;;;;4983267;28;20066;-73
2022/11/15 01:14:13;;;;;;;24.52;18.52;;;6.80;99.90;;;;;;4981027;28;20783;-71
2022/11/15 01:16:39;;;;;;;25.95;19.45;;;6.90;99.90;;;;;;4981112;28;20107;-70
2022/11/15 01:19:04;;;;;;;25.75;17.75;;;6.90;99.90;;;;;;4981513;28;20486;-71
2022/11/15 01:21:30;;;;;;;25.80;18.27;;;6.90;99.90;;;;;;4981976;28;20084;-72
2022/11/15 01:23:57;;;;;;;23.83;18.13;;;7.00;99.90;;;;;;4983428;28;20034;-74
2022/11/15 01:26:23;;;;;;;29.75;18.15;;;7.00;99.90;;;;;;4983007;28;20390;-75
2022/11/15 01:28:50;;;;;;;24.65;18.67;;;7.10;99.90;;;;;;4984612;28;20433;-71
2022/11/15 01:31:18;;;;;;;21.45;16.20;;;7.10;99.90;;;;;;4981069;28;20034;-73
2022/11/15 01:33:44;;;;;;;22.05;16.70;;;7.10;99.90;;;;;;4980007;28;20019;-70
2022/11/15 01:36:16;;;;;;;23.95;16.67;;;7.20;99.90;;;;;;4984451;28;20031;-70
2022/11/15 01:38:42;;;;;;;19.42;16.52;;;7.20;99.90;;;;;;4985505;28;20042;-70
2022/11/15 01:41:19;;;;;;;25.08;16.75;;;7.20;99.90;;;;;;4978496;28;20617;-70
2022/11/15 01:43:48;;;;;;;27.38;18.92;;;7.10;99.90;;;;;;4980884;28;20034;-74
2022/11/15 01:46:17;;;;;;;21.13;16.83;;;7.10;99.90;;;;;;4980920;28;20034;-70
2022/11/15 01:48:43;;;;;;;22.88;16.90;;;7.10;99.90;;;;;;4981033;28;20057;-70
2022/11/15 01:51:13;;;;;;;22.40;16.40;;;7.00;99.90;;;;;;4981532;28;20066;-70
2022/11/15 01:53:41;;;;;;;23.67;16.83;;;7.00;99.90;;;;;;4981124;28;20486;-71
2022/11/15 01:56:11;;;;;;;21.13;16.55;;;7.00;99.90;;;;;;4976601;28;20026;-73
2022/11/15 01:58:38;;;;;;;22.33;16.92;;;7.00;99.90;;;;;;4986956;28;20127;-71
2022/11/15 02:01:04;;;;;;;23.63;16.10;;;7.00;99.90;;;;;;4983241;28;20022;-73
2022/11/15 02:03:49;;;;;;;21.13;16.17;;;7.00;99.90;;;;;;4980675;28;20073;-71
2022/11/15 02:06:15;;;;;;;21.70;16.60;;;7.00;99.90;;;;;;4984152;28;20031;-70
2022/11/15 02:08:41;;;;;;;19.38;15.95;;;6.90;99.90;;;;;;4980392;28;20035;-71
2022/11/15 02:11:09;;;;;;;22.42;16.60;;;6.90;99.90;;;;;;4978998;28;20031;-70
2022/11/15 02:13:35;;;;;;;20.80;16.70;;;6.80;99.90;;;;;;4983853;28;20038;-73
2022/11/15 02:16:25;;;;;;;21.80;16.05;;;6.70;99.90;;;;;;4977195;28;20019;-74
2022/11/15 02:19:03;;;;;;;24.40;17.05;;;6.60;99.90;;;;;;4981291;28;20423;-72
2022/11/15 02:21:49;;;;;;;20.35;16.70;;;6.60;99.90;;;;;;4976019;28;20026;-75
2022/11/15 02:24:30;;;;;;;23.02;17.50;;;6.60;99.90;;;;;;4978505;28;20454;-71
2022/11/15 02:27:27;;;;;;;22.80;16.77;;;6.70;99.90;;;;;;4978992;28;20031;-74
2022/11/15 02:29:55;;;;;;;24.27;17.50;;;6.70;99.90;;;;;;4982902;28;20035;-70
2022/11/15 02:32:40;;;;;;;19.38;15.57;;;6.70;99.90;;;;;;4983444;28;20027;-74
2022/11/15 02:35:35;;;;;;;24.85;16.88;;;6.80;99.90;;;;;;4983516;28;20031;-70
2022/11/15 02:38:22;;;;;;;28.13;17.83;;;6.80;99.90;;;;;;4984358;28;20027;-70
2022/11/15 02:40:54;;;;;;;20.73;17.13;;;6.90;99.90;;;;;;4985637;28;20045;-71
2022/11/15 02:49:19;;;;;;;24.25;17.92;;;6.90;99.90;;;;;;4980120;28;20450;-71
2022/11/15 02:51:48;;;;;;;20.52;15.45;;;6.90;99.90;;;;;;4982467;28;20102;-71
2022/11/15 02:54:26;;;;;;;22.20;16.70;;;6.90;99.90;;;;;;4982189;28;20482;-74
2022/11/15 02:56:58;;;;;;;25.52;16.45;;;6.80;99.90;;;;;;4979919;28;20950;-72
2022/11/15 02:59:46;;;;;;;20.25;15.70;;;6.70;99.90;;;;;;4982527;28;20479;-71
2022/11/15 03:02:29;;;;;;;23.17;16.63;;;6.70;99.90;;;;;;4980208;28;20520;-71
2022/11/15 03:05:01;;;;;;;26.17;18.15;;;6.60;99.90;;;;;;4977240;28;20103;-73
2022/11/15 03:07:51;;;;;;;23.52;16.77;;;6.50;99.90;;;;;;4976142;28;20035;-74
2022/11/15 03:10:45;;;;;;;20.25;16.48;;;6.40;99.90;;;;;;4980040;28;20157;-70
2022/11/15 03:13:30;;;;;;;20.80;17.05;;;6.30;99.90;;;;;;4981291;28;20541;-73
2022/11/15 03:16:26;;;;;;;28.33;18.90;;;6.20;99.90;;;;;;4979140;28;20030;-72
2022/11/15 03:19:09;;;;;;;20.38;15.95;;;6.10;99.90;;;;;;4983464;28;20054;-71
2022/11/15 03:21:39;;;;;;;24.88;17.52;;;6.00;99.90;;;;;;4979380;28;20085;-73
2022/11/15 03:24:07;;;;;;;26.05;17.23;;;6.00;99.90;;;;;;4985846;28;20586;-71
2022/11/15 03:26:35;;;;;;;26.98;18.75;;;6.00;99.90;;;;;;4978044;28;20026;-70
2022/11/15 03:29:07;;;;;;;23.88;17.40;;;6.10;99.90;;;;;;4981799;28;20027;-70
2022/11/15 03:31:47;;;;;;;24.63;18.17;;;6.00;99.90;;;;;;4974694;28;20039;-70
2022/11/15 03:34:38;;;;;;;23.45;17.65;;;6.00;99.90;;;;;;4984014;28;20018;-70
2022/11/15 03:37:05;;;;;;;27.60;17.23;;;6.10;99.90;;;;;;4975771;28;20041;-72
2022/11/15 03:39:31;;;;;;;20.83;15.05;;;6.10;99.90;;;;;;4978778;28;20390;-76
2022/11/15 03:42:02;;;;;;;22.15;15.25;;;6.20;99.90;;;;;;4981024;28;20038;-71
2022/11/15 03:44:51;;;;;;;21.23;16.08;;;6.20;99.90;;;;;;4981956;28;20027;-73
2022/11/15 03:47:20;;;;;;;26.05;17.25;;;6.30;99.90;;;;;;4976169;28;20031;-71
2022/11/15 03:49:52;;;;;;;19.92;16.42;;;6.30;99.90;;;;;;4978052;28;20486;-70
2022/11/15 03:52:19;;;;;;;22.33;16.80;;;6.40;99.90;;;;;;4977570;28;20031;-70
2022/11/15 03:54:55;;;;;;;23.73;17.02;;;6.40;99.90;;;;;;4981901;28;20038;-75
2022/11/15 03:57:22;;;;;;;19.58;15.68;;;6.40;99.90;;;;;;4984643;28;20070;-71
2022/11/15 03:59:47;;;;;;;21.33;16.63;;;6.40;99.90;;;;;;4976780;28;20041;-71
2022/11/15 04:02:13;;;;;;;22.05;16.02;;;6.30;99.90;;;;;;4974951;28;20045;-73
2022/11/15 04:04:39;;;;;;;21.02;16.40;;;6.20;99.90;;;;;;4978553;28;20759;-72
2022/11/15 04:07:06;;;;;;;24.27;16.10;;;6.20;99.90;;;;;;4979090;28;20027;-73
2022/11/15 04:09:31;;;;;;;27.08;17.98;;;6.20;99.90;;;;;;4978523;28;20481;-73
2022/11/15 04:11:57;;;;;;;22.05;16.70;;;6.10;99.90;;;;;;4979096;28;20126;-73
2022/11/15 04:14:22;;;;;;;22.27;16.33;;;6.10;99.90;;;;;;4977495;28;20038;-71
2022/11/15 04:16:48;;;;;;;22.50;16.15;;;6.00;99.90;;;;;;4971803;28;20193;-71
2022/11/15 04:24:42;;;;;;;21.58;16.52;;;5.70;99.90;;;;;;4981624;28;20101;-71
2022/11/15 04:27:08;;;;;;;20.73;16.88;;;5.60;99.90;;;;;;4980601;28;20031;-76
2022/11/15 04:29:34;;;;;;;22.20;16.95;;;5.50;99.90;;;;;;4983597;28;20510;-71
2022/11/15 04:32:04;;;;;;;23.55;16.88;;;5.40;99.90;;;;;;4978777;28;20062;-75
2022/11/15 04:34:30;;;;;;;29.85;19.08;;;5.20;99.90;;;;;;4977477;28;20054;-70
2022/11/15 04:37:15;;;;;;;24.63;16.40;;;5.10;99.90;;;;;;4975832;28;20190;-71
2022/11/15 04:39:42;;;;;;;21.08;16.92;;;5.10;99.90;;;;;;4978602;28;20032;-70
2022/11/15 04:42:08;;;;;;;33.97;18.08;;;5.00;99.90;;;;;;4979066;28;20058;-70
2022/11/15 04:44:34;;;;;;;30.70;18.45;;;5.00;99.90;;;;;;4978877;28;20462;-70
2022/11/15 04:47:00;;;;;;;25.35;17.23;;;4.90;99.90;;;;;;4979251;28;20026;-72
2022/11/15 04:49:26;;;;;;;28.13;18.02;;;4.90;99.90;;;;;;4978886;28;20033;-70
2022/11/15 04:51:51;;;;;;;27.48;18.48;;;4.90;99.90;;;;;;4974425;28;20044;-70
2022/11/15 04:54:17;;;;;;;25.77;18.10;;;4.80;99.90;;;;;;4976941;28;20042;-73
2022/11/15 04:56:43;;;;;;;36.67;20.23;;;4.80;99.90;;;;;;4977228;28;20071;-70
2022/11/15 04:59:08;;;;;;;27.63;18.67;;;4.80;99.90;;;;;;4979160;28;20031;-71
2022/11/15 05:01:34;;;;;;;30.13;19.00;;;4.70;99.90;;;;;;4984713;28;20438;-71
2022/11/15 05:06:43;;;;;;;31.92;19.90;;;4.70;99.90;;;;;;4978533;28;20114;-74
2022/11/15 05:09:09;;;;;;;34.20;19.17;;;4.70;99.90;;;;;;4979711;28;20118;-70
2022/11/15 05:11:35;;;;;;;28.90;18.25;;;4.70;99.90;;;;;;4975165;28;20146;-70
2022/11/15 05:14:01;;;;;;;32.33;20.05;;;4.70;99.90;;;;;;4974849;28;20035;-70
2022/11/15 05:16:26;;;;;;;31.80;18.83;;;4.60;99.90;;;;;;4976077;28;20049;-72
2022/11/15 05:18:53;;;;;;;32.38;18.88;;;4.60;99.90;;;;;;4978158;28;20046;-75
2022/11/15 05:21:19;;;;;;;31.85;20.17;;;4.60;99.90;;;;;;4975741;28;20057;-71
2022/11/15 05:23:45;;;;;;;33.53;20.23;;;4.60;99.90;;;;;;4978655;28;20034;-70
2022/11/15 05:26:11;;;;;;;35.75;21.50;;;4.60;99.90;;;;;;4976835;28;20037;-73
2022/11/15 05:28:37;;;;;;;35.85;23.80;;;4.60;99.90;;;;;;4975855;28;20065;-70
2022/11/15 05:31:03;;;;;;;41.70;25.38;;;4.60;99.90;;;;;;4979746;28;20044;-71
2022/11/15 05:33:28;;;;;;;39.95;25.73;;;4.60;99.90;;;;;;4977757;28;20018;-71
2022/11/15 05:36:29;;;;;;;48.22;26.92;;;4.60;99.90;;;;;;4978938;28;20474;-71
2022/11/15 05:38:55;;;;;;;54.60;28.15;;;4.60;99.90;;;;;;4974268;28;20065;-74
2022/11/15 05:41:29;;;;;;;41.15;23.35;;;4.60;99.90;;;;;;4978176;28;20062;-74
2022/11/15 05:43:55;;;;;;;42.35;24.98;;;4.60;99.90;;;;;;4978075;28;20077;-73
2022/11/15 05:46:20;;;;;;;37.70;23.20;;;4.60;99.90;;;;;;4977792;28;20103;-70
2022/11/15 05:48:49;;;;;;;36.17;22.00;;;4.60;99.90;;;;;;4980420;28;20100;-71
2022/11/15 05:51:18;;;;;;;31.75;19.38;;;4.60;99.90;;;;;;4977399;28;20023;-70
2022/11/15 05:53:45;;;;;;;35.58;20.17;;;4.60;99.90;;;;;;4981407;28;20121;-71
2022/11/15 05:56:11;;;;;;;37.63;20.35;;;4.60;99.90;;;;;;4980926;28;20086;-72
2022/11/15 05:58:37;;;;;;;36.45;19.85;;;4.60;99.90;;;;;;4980759;28;20056;-71
2022/11/15 06:01:03;;;;;;;34.35;20.98;;;4.60;99.90;;;;;;4978205;28;20030;-70
2022/11/15 06:03:29;;;;;;;36.92;20.67;;;4.60;99.90;;;;;;4980922;28;20482;-71
2022/11/15 06:05:56;;;;;;;34.10;19.90;;;4.60;99.90;;;;;;4981362;28;20068;-71
2022/11/15 06:08:21;;;;;;;30.13;20.17;;;4.60;99.90;;;;;;4979344;28;20047;-71
2022/11/15 06:10:47;;;;;;;33.08;20.73;;;4.60;99.90;;;;;;4975704;28;20334;-70
2022/11/15 06:13:13;;;;;;;32.38;20.15;;;4.50;99.90;;;;;;4976899;28;20038;-72
2022/11/15 06:15:38;;;;;;;34.63;20.65;;;4.50;99.90;;;;;;4979443;28;20035;-74
2022/11/15 06:18:04;;;;;;;34.72;21.02;;;4.50;99.90;;;;;;4978403;28;20038;-70
2022/11/15 06:20:30;;;;;;;39.20;21.92;;;4.40;99.90;;;;;;4981290;28;20173;-70
2022/11/15 06:22:57;;;;;;;44.10;21.02;;;4.50;99.90;;;;;;4983876;28;20026;-70
2022/11/15 06:25:23;;;;;;;36.40;21.80;;;4.50;99.90;;;;;;4983438;28;20471;-72
2022/11/15 06:27:56;;;;;;;37.08;21.33;;;4.60;99.90;;;;;;4984510;28;20161;-76
2022/11/15 06:30:22;;;;;;;40.72;22.10;;;4.70;99.90;;;;;;4983761;28;20114;-75
2022/11/15 06:32:48;;;;;;;40.80;21.80;;;4.80;99.90;;;;;;4978485;28;20418;-74
2022/11/15 06:35:14;;;;;;;35.17;20.95;;;4.80;99.90;;;;;;4980552;28;20030;-73
2022/11/15 06:37:40;;;;;;;38.90;20.73;;;4.80;99.90;;;;;;4982256;28;20046;-73
2022/11/15 06:40:08;;;;;;;30.77;19.25;;;4.80;99.90;;;;;;4981798;28;20019;-71
2022/11/15 06:42:33;;;;;;;29.67;18.42;;;4.80;99.90;;;;;;4981878;28;20178;-73
2022/11/15 06:44:59;;;;;;;38.53;20.13;;;4.70;99.90;;;;;;4977740;28;20152;-71
2022/11/15 06:47:25;;;;;;;35.30;20.77;;;4.70;99.90;;;;;;4986197;28;20031;-70
2022/11/15 06:49:50;;;;;;;28.42;18.98;;;4.80;99.90;;;;;;4981895;28;20047;-70
2022/11/15 06:52:18;;;;;;;37.80;20.40;;;4.80;99.90;;;;;;4983996;28;20467;-74
2022/11/15 06:54:44;;;;;;;37.33;21.73;;;4.80;99.90;;;;;;4979842;28;20077;-70
2022/11/15 06:57:10;;;;;;;38.13;19.63;;;4.80;99.90;;;;;;4979922;28;20049;-70
2022/11/15 06:59:36;;;;;;;32.78;20.55;;;4.90;99.90;;;;;;4980410;28;20030;-73
2022/11/15 07:02:05;;;;;;;31.08;19.73;;;5.00;99.90;;;;;;4984031;28;20121;-70
2022/11/15 07:04:31;;;;;;;32.45;19.60;;;5.00;99.90;;;;;;4981407;28;20070;-76
2022/11/15 07:06:56;;;;;;;30.65;19.08;;;5.00;99.90;;;;;;4977571;28;20026;-72
2022/11/15 07:09:22;;;;;;;31.15;19.25;;;5.00;99.90;;;;;;4983943;28;20015;-73
2022/11/15 07:11:47;;;;;;;27.77;18.48;;;5.10;99.90;;;;;;4979468;28;20109;-70
2022/11/15 07:14:13;;;;;;;26.63;18.52;;;5.10;99.90;;;;;;4984050;28;20035;-74
2022/11/15 07:16:39;;;;;;;39.10;21.92;;;5.10;99.90;;;;;;4994524;28;20383;-76
2022/11/15 07:19:04;;;;;;;29.60;17.45;;;5.20;99.90;;;;;;4981851;28;20061;-70
2022/11/15 07:21:30;;;;;;;31.75;18.48;;;5.20;99.90;;;;;;4983173;28;20019;-71
2022/11/15 07:23:55;;;;;;;28.02;18.00;;;5.30;99.90;;;;;;4980768;28;20036;-73
2022/11/15 07:26:21;;;;;;;27.80;18.65;;;5.30;99.90;;;;;;4978886;28;20035;-71
2022/11/15 07:28:47;;;;;;;27.77;17.60;;;5.40;99.90;;;;;;4982049;28;20034;-70
2022/11/15 07:31:12;;;;;;;28.27;18.05;;;5.50;99.90;;;;;;4981289;28;20023;-70
2022/11/15 07:33:38;;;;;;;25.58;17.67;;;5.50;99.90;;;;;;4979622;28;20018;-73
2022/11/15 07:36:06;;;;;;;26.10;17.20;;;5.60;99.90;;;;;;4977079;28;20054;-71
2022/11/15 07:38:33;;;;;;;27.05;17.52;;;5.80;99.90;;;;;;4981208;28;20102;-72
2022/11/15 07:41:01;;;;;;;24.85;17.92;;;5.90;99.90;;;;;;4978892;28;20026;-70
2022/11/15 07:43:28;;;;;;;25.13;17.17;;;5.90;99.90;;;;;;4979973;28;20422;-70
2022/11/15 07:45:53;;;;;;;25.75;17.30;;;6.00;99.90;;;;;;4975545;28;20022;-70
2022/11/15 07:48:19;;;;;;;24.70;16.45;;;6.10;99.90;;;;;;4979668;28;20701;-71
2022/11/15 07:50:45;;;;;;;22.73;15.88;;;6.10;99.90;;;;;;4983191;28;20478;-72
2022/11/15 07:53:11;;;;;;;22.27;18.08;;;6.20;99.90;;;;;;4980304;28;20035;-75
2022/11/15 07:55:39;;;;;;;21.90;15.82;;;6.30;99.90;;;;;;4984194;28;20027;-75
2022/11/15 07:58:06;;;;;;;25.48;16.98;;;6.30;99.90;;;;;;4978743;28;20034;-75
2022/11/15 08:00:33;;;;;;;23.58;16.65;;;6.40;99.90;;;;;;4978900;28;20372;-70
2022/11/15 08:03:07;;;;;;;21.98;16.20;;;6.40;99.90;;;;;;4977818;28;20054;-72
2022/11/15 08:05:33;;;;;;;22.08;15.88;;;6.50;99.90;;;;;;4981669;28;20511;-70
2022/11/15 08:07:59;;;;;;;29.88;17.25;;;6.60;99.90;;;;;;4979903;28;20037;-71
2022/11/15 08:10:25;;;;;;;21.50;15.60;;;6.60;99.90;;;;;;4981791;28;20026;-71
2022/11/15 08:13:06;;;;;;;21.50;15.80;;;6.70;99.90;;;;;;4980163;28;20125;-70
2022/11/15 08:15:32;;;;;;;19.02;14.93;;;6.80;99.90;;;;;;4976293;28;20126;-72
2022/11/15 08:18:02;;;;;;;17.02;14.25;;;6.90;99.90;;;;;;4980335;28;20402;-73
2022/11/15 08:20:29;;;;;;;16.35;13.88;;;6.90;99.90;;;;;;4978256;28;20143;-71
2022/11/15 08:22:59;;;;;;;17.52;13.50;;;7.00;99.90;;;;;;4979329;28;20034;-70
2022/11/15 08:25:26;;;;;;;16.45;13.63;;;7.10;99.90;;;;;;4979279;28;20364;-70
2022/11/15 08:27:53;;;;;;;18.40;14.27;;;7.10;99.90;;;;;;4979668;28;20122;-75
2022/11/15 08:30:19;;;;;;;20.27;14.32;;;7.20;99.90;;;;;;4976065;28;20035;-73
2022/11/15 08:32:45;;;;;;;17.80;12.63;;;7.30;99.90;;;;;;4973331;28;20089;-71
2022/11/15 08:35:11;;;;;;;14.27;12.60;;;7.40;99.90;;;;;;4979274;28;20027;-72
2022/11/15 08:37:36;;;;;;;20.50;13.77;;;7.50;99.90;;;;;;4976142;28;20513;-68
2022/11/15 08:40:02;;;;;;;16.80;13.93;;;7.60;99.90;;;;;;4976333;28;20674;-69
2022/11/15 08:42:28;;;;;;;15.73;12.65;;;7.70;99.90;;;;;;4973718;28;20035;-68
2022/11/15 08:44:54;;;;;;;16.85;13.50;;;7.80;99.90;;;;;;4978199;28;20395;-69
2022/11/15 08:47:19;;;;;;;19.27;13.85;;;8.00;99.90;;;;;;4977615;28;20034;-70
2022/11/15 08:49:45;;;;;;;14.68;13.13;;;8.10;99.90;;;;;;4978564;28;20093;-73
2022/11/15 08:52:10;;;;;;;13.98;12.07;;;8.20;99.90;;;;;;4978061;28;20042;-69
2022/11/15 08:54:36;;;;;;;14.00;12.50;;;8.30;99.90;;;;;;4982338;28;20018;-71
2022/11/15 08:57:02;;;;;;;14.00;12.02;;;8.50;99.90;;;;;;4979202;28;20089;-69
2022/11/15 08:59:27;;;;;;;14.20;11.52;;;9.00;99.90;;;;;;4973779;28;20446;-74
2022/11/15 09:01:53;;;;;;;11.93;10.50;;;9.60;99.90;;;;;;4977487;28;20027;-69
2022/11/15 09:04:19;;;;;;;11.80;9.52;;;10.50;99.90;;;;;;4979722;28;20027;-70
2022/11/15 09:06:44;;;;;;;10.70;9.60;;;11.10;99.90;;;;;;4982527;28;20023;-72
2022/11/15 09:09:10;;;;;;;9.90;9.05;;;11.70;99.90;;;;;;4975305;28;20069;-72
2022/11/15 09:11:36;;;;;;;10.63;9.63;;;12.10;99.90;;;;;;4979726;28;20035;-69
2022/11/15 09:14:01;;;;;;;11.30;10.00;;;12.60;99.90;;;;;;4977639;28;20038;-73
2022/11/15 09:16:27;;;;;;;10.02;9.00;;;12.80;99.90;;;;;;4976117;28;20503;-73
2022/11/15 09:18:54;;;;;;;9.60;8.68;;;13.00;99.90;;;;;;4982144;28;20027;-69
2022/11/15 09:21:20;;;;;;;9.65;8.68;;;13.40;99.90;;;;;;4979239;28;20031;-70
2022/11/15 09:23:46;;;;;;;10.20;8.75;;;13.60;99.90;;;;;;4978018;28;20054;-69
2022/11/15 09:26:12;;;;;;;10.25;9.25;;;13.60;99.90;;;;;;4975035;28;20101;-70
2022/11/15 09:28:41;;;;;;;19.20;7.93;;;13.80;99.90;;;;;;4979534;28;20039;-70
2022/11/15 09:31:07;;;;;;;9.00;8.20;;;14.10;99.90;;;;;;4979310;28;20114;-74
2022/11/15 09:33:33;;;;;;;8.77;7.97;;;14.10;99.90;;;;;;4980071;28;20105;-69
2022/11/15 09:36:04;;;;;;;9.10;8.20;;;14.00;99.90;;;;;;4983968;28;20647;-69
2022/11/15 09:38:29;;;;;;;9.00;8.20;;;14.20;99.90;;;;;;4981744;28;20050;-73
2022/11/15 09:41:25;;;;;;;12.27;8.13;;;14.40;99.90;;;;;;4982685;28;20053;-74
2022/11/15 09:44:09;;;;;;;8.98;8.07;;;14.50;99.90;;;;;;4975692;28;20035;-69
2022/11/15 09:46:40;;;;;;;8.63;7.88;;;14.30;99.90;;;;;;4982328;28;20125;-70
2022/11/15 09:49:08;;;;;;;9.82;8.15;;;14.30;99.90;;;;;;4979270;28;20023;-70
2022/11/15 09:51:46;;;;;;;8.18;7.47;;;14.40;99.90;;;;;;4979422;28;20073;-73
2022/11/15 09:54:11;;;;;;;9.15;7.95;;;14.40;99.90;;;;;;4977887;28;20118;-73
2022/11/15 09:56:42;;;;;;;8.18;7.47;;;14.30;99.90;;;;;;4978694;28;20121;-70
2022/11/15 09:59:16;;;;;;;7.70;6.88;;;14.30;99.90;;;;;;4982227;28;20502;-69
2022/11/15 10:01:59;;;;;;;8.23;7.43;;;14.30;99.90;;;;;;4978733;28;20046;-73
2022/11/15 10:04:26;;;;;;;8.85;7.95;;;14.30;99.90;;;;;;4979682;28;20030;-70
2022/11/15 10:07:30;;;;;;;9.18;8.27;;;14.20;99.90;;;;;;4978767;28;20026;-69
2022/11/15 10:09:59;;;;;;;8.68;7.88;;;14.00;99.90;;;;;;4982830;28;20045;-71
2022/11/15 10:12:25;;;;;;;8.98;8.02;;;14.00;99.90;;;;;;4986391;28;20609;-70
2022/11/15 10:15:05;;;;;;;8.88;7.97;;;14.00;99.90;;;;;;4980356;28;20394;-72
2022/11/15 10:18:02;;;;;;;8.95;8.15;;;14.10;99.90;;;;;;4977859;28;20491;-70
2022/11/15 10:20:30;;;;;;;10.40;8.48;;;14.30;99.90;;;;;;4976401;28;20537;-70
2022/11/15 10:23:00;;;;;;;8.32;7.53;;;14.40;99.90;;;;;;4985553;28;20148;-71
2022/11/15 10:25:26;;;;;;;9.88;8.15;;;14.30;99.90;;;;;;4977575;28;20031;-73
2022/11/15 10:28:25;;;;;;;9.52;8.60;;;14.00;99.90;;;;;;4980576;28;20093;-71
2022/11/15 10:30:54;;;;;;;8.90;8.00;;;13.70;99.90;;;;;;4989265;28;20101;-73
2022/11/15 10:33:37;;;;;;;9.00;8.07;;;13.50;99.90;;;;;;4981891;28;20422;-71
2022/11/15 10:36:08;;;;;;;8.88;8.02;;;13.40;99.90;;;;;;4976453;28;20079;-71
2022/11/15 10:38:49;;;;;;;9.27;8.40;;;13.50;99.90;;;;;;4980417;28;20114;-72
2022/11/15 10:41:19;;;;;;;7.78;7.10;;;13.40;99.90;;;;;;4976236;28;20199;-70
2022/11/15 10:44:01;;;;;;;8.03;7.23;;;13.50;99.90;;;;;;4976842;28;20045;-69
2022/11/15 10:46:26;;;;;;;8.80;8.10;;;13.50;99.90;;;;;;4984445;28;20114;-71
2022/11/15 10:48:52;;;;;;;8.20;7.47;;;13.40;99.90;;;;;;4980341;28;20717;-72
2022/11/15 10:51:29;;;;;;;9.25;8.35;;;13.30;99.90;;;;;;4979272;28;20044;-69
2022/11/15 10:53:57;;;;;;;9.30;8.40;;;13.40;99.90;;;;;;4976913;28;20034;-74
2022/11/15 10:56:26;;;;;;;8.32;7.45;;;13.30;99.90;;;;;;4986863;28;20125;-73
2022/11/15 10:58:55;;;;;;;8.50;7.63;;;13.40;99.90;;;;;;4979780;28;20035;-70
2022/11/15 11:01:26;;;;;;;8.07;7.28;;;13.40;99.90;;;;;;4978480;28;20670;-72
2022/11/15 11:04:04;;;;;;;11.88;7.28;;;13.50;99.90;;;;;;4978499;28;20050;-73
2022/11/15 11:06:32;;;;;;;7.88;7.07;;;13.60;99.90;;;;;;4982658;28;20524;-71
2022/11/15 11:09:04;;;;;;;8.10;7.32;;;13.70;99.90;;;;;;4978336;28;20386;-71
2022/11/15 11:11:48;;;;;;;;;;;13.80;99.90;;;;;;4979941;28;20122;-74
2022/11/15 11:14:35;;;;;;;7.63;6.93;;;13.70;99.90;;;;;;4978368;28;19918;-70
2022/11/15 11:17:16;;;;;;;8.23;7.15;;;13.60;99.90;;;;;;4978537;28;20097;-72
2022/11/15 11:19:45;;;;;;;10.02;7.00;;;13.50;99.90;;;;;;4980028;28;20030;-69
2022/11/15 11:22:19;;;;;;;14.27;7.22;;;13.40;99.90;;;;;;4976647;28;20066;-67
2022/11/15 11:25:09;;;;;;;8.45;7.65;;;13.40;99.90;;;;;;4975370;28;20019;-67
2022/11/15 11:28:01;;;;;;;10.43;7.32;;;13.50;99.90;;;;;;4966956;28;20045;-68
2022/11/15 11:30:55;;;;;;;7.30;6.65;;;13.60;99.90;;;;;;4977799;28;20031;-67
2022/11/15 11:33:42;;;;;;;7.30;6.40;;;13.70;99.90;;;;;;4980772;28;20801;-68
2022/11/15 11:36:37;;;;;;;7.43;6.72;;;13.80;99.90;;;;;;4988336;28;20129;-68
2022/11/15 11:39:14;;;;;;;7.10;6.40;;;13.90;99.90;;;;;;4981645;28;20038;-68
2022/11/15 11:42:08;;;;;;;8.02;7.32;;;13.90;99.90;;;;;;4977392;28;20037;-68
2022/11/15 11:44:52;;;;;;;7.45;6.75;;;14.00;99.90;;;;;;4978123;28;20161;-67
2022/11/15 11:47:24;;;;;;;7.32;6.63;;;14.10;99.90;;;;;;4978842;28;20030;-68
2022/11/15 11:50:01;;;;;;;7.10;6.43;;;14.20;99.90;;;;;;4984623;28;20035;-67
2022/11/15 11:52:41;;;;;;;6.80;6.10;;;14.40;99.90;;;;;;4977606;28;20398;-68
2022/11/15 11:55:33;;;;;;;7.35;6.18;;;14.60;99.90;;;;;;4979317;28;20483;-68
2022/11/15 11:58:13;;;;;;;6.53;5.93;;;15.00;99.90;;;;;;4978861;28;20267;-68
2022/11/15 12:00:43;;;;;;;6.90;5.78;;;15.10;99.90;;;;;;4977608;28;20029;-68
2022/11/15 12:03:11;;;;;;;6.43;5.85;;;15.30;99.90;;;;;;4977811;28;20386;-68
2022/11/15 12:05:41;;;;;;;6.10;5.50;;;15.40;99.90;;;;;;4979166;28;20065;-68
2022/11/15 12:08:44;;;;;;;5.82;5.25;;;15.50;99.90;;;;;;4978380;28;20026;-68
2022/11/15 12:11:28;;;;;;;6.53;5.85;;;15.50;99.90;;;;;;4975076;28;20028;-68
2022/11/15 12:14:00;;;;;;;6.03;5.28;;;15.50;99.90;;;;;;4975219;28;20498;-68
2022/11/15 12:16:30;;;;;;;6.30;5.80;;;15.30;99.90;;;;;;4975085;28;20038;-68
2022/11/15 12:19:00;;;;;;;6.57;5.97;;;15.40;99.90;;;;;;4975565;28;20069;-68
2022/11/15 12:21:53;;;;;;;8.20;5.97;;;15.40;99.90;;;;;;4972131;28;20165;-68
2022/11/15 12:24:27;;;;;;;6.20;5.60;;;15.40;99.90;;;;;;4975636;28;20589;-68
2022/11/15 12:27:00;;;;;;;5.50;5.00;;;15.40;99.90;;;;;;4976841;28;20104;-68
2022/11/15 12:29:47;;;;;;;6.97;5.97;;;15.40;99.90;;;;;;4982523;28;20046;-67
2022/11/15 12:32:35;;;;;;;6.38;5.45;;;15.20;99.90;;;;;;4979735;28;20073;-67
2022/11/15 12:35:03;;;;;;;6.38;5.63;;;14.90;99.90;;;;;;4978642;28;20030;-67
2022/11/15 12:37:37;;;;;;;6.13;5.53;;;14.90;99.90;;;;;;4979138;28;20390;-68
2022/11/15 12:40:23;;;;;;;6.72;6.03;;;15.00;99.90;;;;;;4977572;28;20057;-69
2022/11/15 12:43:04;;;;;;;5.65;5.05;;;15.10;99.90;;;;;;4977250;28;20088;-68
2022/11/15 12:45:38;;;;;;;6.35;5.80;;;15.20;99.90;;;;;;4975272;28;20042;-68
2022/11/15 12:48:17;;;;;;;6.95;5.95;;;15.30;99.90;;;;;;4974824;28;20035;-68
2022/11/15 12:50:57;;;;;;;6.00;5.50;;;15.20;99.90;;;;;;4972705;28;20402;-68
2022/11/15 12:53:23;;;;;;;8.88;5.53;;;15.10;99.90;;;;;;4980401;28;20038;-68
2022/11/15 12:56:15;;;;;;;6.07;5.43;;;14.80;99.90;;;;;;4980446;28;20064;-68
2022/11/15 12:58:57;;;;;;;5.72;5.22;;;14.40;99.90;;;;;;4974312;28;20418;-68
2022/11/15 13:01:32;;;;;;;7.53;5.95;;;14.20;99.90;;;;;;4977705;28;20055;-68
2022/11/15 13:04:28;;;;;;;7.28;5.90;;;13.90;99.90;;;;;;4977583;28;20089;-68
2022/11/15 13:07:03;;;;;;;6.72;6.13;;;13.80;99.90;;;;;;4969090;28;20053;-68
2022/11/15 13:09:32;;;;;;;10.27;6.82;;;13.60;99.90;;;;;;4978543;28;20101;-68
2022/11/15 13:12:30;;;;;;;7.10;6.40;;;13.50;99.90;;;;;;4980017;28;20038;-68
2022/11/15 13:15:22;;;;;;;6.82;6.22;;;13.40;99.90;;;;;;4964882;28;20105;-68